This is the latest recevied weather packets stored in our database for station/object WX4SGA. If no packets are shown the sender has not sent any weather packets the latest 10 day(s).
| Time | Temp. | Humidity | Pressure | Rain* | Wind** | Luminosity | Snow |
|---|---|---|---|---|---|---|---|
| 1777573540 | 29.44° C | 51% | 1011.5 hPa | 0 mm | - | 280 W/m² | - |
| 1777573238 | 28.33° C | 53% | 1011.5 hPa | 0 mm | - | 431 W/m² | - |
| 1777572934 | 30° C | 52% | 1011.5 hPa | 0 mm | - | 325 W/m² | - |
| 1777572630 | 30° C | 51% | 1011.5 hPa | 0 mm | - | 507 W/m² | - |
| 1777572330 | 30° C | 49% | 1011.9 hPa | 0 mm | - | 1007 W/m² | - |
| 1777572026 | 30° C | 50% | 1011.5 hPa | 0 mm | - | 950 W/m² | - |
| 1777571726 | 29.44° C | 52% | 1011.5 hPa | 0 mm | - | 1038 W/m² | - |
| 1777571424 | 29.44° C | 51% | 1011.9 hPa | 0 mm | - | 1018 W/m² | - |
| 1777571120 | 30° C | 53% | 1011.9 hPa | 0 mm | - | 788 W/m² | - |
| 1777570816 | 28.89° C | 54% | 1011.9 hPa | 0 mm | - | 814 W/m² | - |
| 1777570512 | 28.33° C | 56% | 1011.9 hPa | 0 mm | - | 715 W/m² | - |
| 1777570209 | 28.33° C | 57% | 1011.9 hPa | 0 mm | - | 914 W/m² | - |
| 1777569904 | 28.89° C | 57% | 1011.9 hPa | 0 mm | - | 576 W/m² | - |
| 1777569600 | 28.33° C | 56% | 1012.2 hPa | 0 mm | - | 925 W/m² | - |
| 1777569297 | 28.33° C | 59% | 1012.2 hPa | 0 mm | - | 698 W/m² | - |
| 1777568993 | 29.44° C | 56% | 1012.2 hPa | 0 mm | - | 783 W/m² | - |
| 1777568690 | 27.78° C | 59% | 1012.2 hPa | 0 mm | - | 883 W/m² | - |
| 1777568387 | 26.67° C | 61% | 1012.5 hPa | 0 mm | - | 955 W/m² | - |
| 1777568084 | 27.22° C | 61% | 1012.5 hPa | 0 mm | - | 648 W/m² | - |
| 1777567781 | 27.22° C | 61% | 1012.9 hPa | 0 mm | - | 634 W/m² | - |
| 1777567477 | 27.22° C | 62% | 1012.9 hPa | 0 mm | - | 658 W/m² | - |
| 1777567175 | 26.67° C | 63% | 1012.9 hPa | 0 mm | - | 656 W/m² | - |
| 1777566873 | 25.56° C | 65% | 1013.2 hPa | 0 mm | - | 762 W/m² | - |
| 1777566570 | 26.11° C | 67% | 1013.2 hPa | 0 mm | - | 360 W/m² | - |
| 1777566267 | 26.11° C | 66% | 1013.2 hPa | 0 mm | - | 406 W/m² | - |
* Rain latest hour (hover to see other rain measurements)
** Current wind speed in m/s (hover to see current wind gust speed)